Wednesday, November 22, 2017, 3:55 AM EST
Back to Local

KADW, Camp Springs / Andrews Air Force Base

Location: Andrews Air Force Base, MD, United States Lat: 38.817
Local Time: 3:55 AM EST ( 8:55 GMT) Lon: -76.85
Time Zone: US/Eastern Elev: 282 ft

Show me the last for .
Show Coded

Time T Td Feel RH Dir Speed Gust Alt SLP Vis Weather Sky Remarks
2017-11-22 03:40 54 46 - 76 200° 8 - 29.92 29.94 10 -RA SCT022 SCT029 BKN038 BKN049 BKN075 None
2017-11-22 03:35 54 46 - 76 190° 8 - 29.92 29.94 10 -RA SCT022 BKN029 BKN036 BKN080 None
2017-11-22 02:56 53 45 - 73 180° 8 - 29.93 29.95 10 SCT035 BKN090 None
2017-11-22 01:56 53 45 - 71 180° 9 - 29.95 29.97 10 FEW036 None
2017-11-22 00:56 54 44 - 69 180° 12 - 29.98 30.00 10 FEW085 6-hr Min Temp (1am): 52.3°F
6-hr Max Temp (1am): 55.2°F
2017-11-21 23:56 55 44 - 66 190° 13 - 30.00 30.02 10 CLR 24-hr Min Temp (12am): 36.9°F
24-hr Max Temp (12am): 60.6°F
2017-11-21 22:56 55 44 - 66 200° 12 - 30.02 30.04 10 BKN210 None
2017-11-21 21:56 55 43 - 65 200° 12 - 30.03 30.05 10 FEW210 None
2017-11-21 20:56 54 42 - 65 190° 10 - 30.05 30.07 10 SCT200 None
2017-11-21 19:56 53 41 - 63 190° 9 - 30.05 30.07 10 FEW200 None
2017-11-21 18:56 55 41 - 59 190° 8 - 30.04 30.06 10 CLR 6-hr Min Temp (7pm): 54.7°F
6-hr Max Temp (7pm): 60.6°F
2017-11-21 17:56 57 40 - 53 180° 13 - 30.04 30.06 10 CLR None
2017-11-21 16:56 58 40 - 52 190° 9 - 30.02 30.04 10 CLR None
2017-11-21 15:56 60 41 - 47 190° 13 - 30.02 30.04 10 CLR None
2017-11-21 14:56 60 39 - 45 220° 14 - 30.02 30.04 10 FEW200 None
2017-11-21 13:56 60 36 - 40 210° 16 24 30.03 30.05 10 CLR None
2017-11-21 12:56 59 33 - 38 210° 16 26 30.05 30.07 10 CLR Peak wind: 35 mph (31 kts) from 240° at 04 min
6-hr Min Temp (1pm): 37.9°F
6-hr Max Temp (1pm): 59.2°F
2017-11-21 11:56 59 32 - 35 210° 21 30 30.08 30.10 10 CLR Peak wind: 31 mph (27 kts) from 210° at 56 min
2017-11-21 10:56 57 28 - 33 200° 10 23 30.11 30.13 10 FEW200 None
2017-11-21 09:56 51 28 - 41 210° 12 - 30.13 30.15 10 CLR None
2017-11-21 08:56 46 29 40 52 210° 10 - 30.14 30.16 10 CLR None
2017-11-21 07:56 42 29 36 61 200° 9 - 30.14 30.16 10 CLR None
2017-11-21 06:56 38 27 32 65 190° 7 - 30.13 30.16 10 CLR 6-hr Min Temp (7am): 36.9°F
6-hr Max Temp (7am): 39.7°F
2017-11-21 05:56 37 28 31 67 180° 8 - 30.13 30.16 10 CLR None
2017-11-21 04:56 37 27 30 66 190° 10 - 30.12 30.14 10 CLR None
2017-11-21 03:56 38 26 33 61 200° 7 - 30.13 30.15 10 CLR None

Support USWX by starting your Amazon purchase here.